www . g i u s e p p e r o s a t i . n e t
36a SALITREDICI
Domenica 21 luglio 2019
Da ABBADIA  S. SALVATORE a VETTA AMIATA
Gara valida campionato regionale uisp corsa in salita 2019
KM 13,100
Da  825  a  1680  m  sul mare
ORDINE D'ARRIVO
In grassetto i primi di categoria
ASSOL. M / F CATEG. ATLETA ANNO SOCIETA' TEMPO Km / h Min / Km
1 1 masch 1 C m Lubrano Gabriele 1973 Asd Atletica Costa D'Argento 0 56 55 13,915 0.04.19
2 2 masch 1 B m Tartaglini Alessandro 1986 U. P.Policiano Arezzo Atletica 0 57 03 13,883 0.04.19
3 3 masch 2 B m Bianchi Filippo 1986 Il Ponte Scandicci A.S.D. Podistica 0 57 58 13,663 0.04.24
4 4 masch 3 B m Nucera Giovanni Domenico 1987 Filirun Team Asd 0 58 19 13,581 0.04.25
5 5 masch 4 B m Frappi Nicola 1986 Podistica Il Campino 1 02 03 12,764 0.04.42
6 6 masch 1 A m Metushi Satiljano 1992 Atletica Ponticino 1 02 15 12,723 0.04.43
7 7 masch 2 C m Ansano Fabio 1978 A.S.D. La Chianina 1 03 10 12,538 0.04.47
8 8 masch 5 B m Metushi Malvin 1987 Atletica Ponticino 1 03 18 12,512 0.04.48
9 9 masch 3 C m Costanzi Enrico 1978 A.S.D. Runners San Gemini 1 03 23 12,495 0.04.48
10 10 masch 6 B m Smacchia Luca 1987 Filirun Team Asd 1 03 44 12,427 0.04.50
11 11 masch 2 A m Sandroni Daniele 1996 Podistica Val Di Pesa A.S.D. 1 04 05 12,359 0.04.51
12 12 masch 7 B m Pugnali Alessandro 1983 Atletica Winner Foligno 1 04 08 12,349 0.04.52
13 13 masch 1 D m Casalini Claudio 1964 Atletica Marciatori Mugello A.S.D. 1 04 28 12,285 0.04.53
14 14 masch 2 D m Nottolini Claudio 1962 Asd Track & Field Master Gross 1 04 31 12,276 0.04.53
15 15 masch 3 A m De Bernardi Gino 1994 Asd Runner Team 1 05 15 12,138 0.04.57
16 16 masch 4 C m Panicucci Alessio 1979 Circolo Ricreativo Solvay 1 05 27 12,101 0.04.58
17 17 masch 3 D m Calfapietra Giorgio 1968 Sempredicorsa Asd 1 05 52 12,024 0.04.59
18 18 masch 8 B m Lippi Marco 1985 A.S.D. Team Marathon Bike 1 06 08 11,976 0.05.01
19 19 masch 5 C m Morbidelli Emiliano 1977 Athletica Vaticana A.S.D. 1 06 13 11,961 0.05.01
20 20 masch 6 C m Sfondalmondo Massimiliano 1971 Tx Fitness S.S.D. Arl 1 06 29 11,913 0.05.02
21 21 masch 9 B m Merluzzo Matteo 1987 A.S.D. Filippide Dlf Chiusi 1 06 31 11,907 0.05.02
22 22 masch 10 B m Simoncini Davide 1980 Circolo Ricreativo Solvay 1 06 52 11,844 0.05.04
23 23 masch 4 D m Giannelli Alessandro 1968 Atletica Signa A.S.D. 1 07 01 11,818 0.05.05
24 24 masch 7 C m Salvi Guido 1971 Runners Canino Asd 1 07 22 11,757 0.05.06
25 25 masch 11 B m Cheli Luigi 1983 A.S.D. Team Marathon Bike 1 07 23 11,754 0.05.06
26 26 masch 8 C m Taliani Massimiliano 1976 A.S.D. Team Marathon Bike 1 07 37 11,713 0.05.07
27 27 masch 12 B m Barbi Tommaso 1988 Ronda Ghibellina Team 1 07 49 11,679 0.05.08
28 28 masch 9 C m Camilloni Livio 1977 Podistica Avis Deruta 1 08 08 11,624 0.05.10
29 29 masch 13 B m Pantalla Fabio 1984 Atletica Winner Foligno 1 08 27 11,570 0.05.11
30 30 masch 10 C m Nottolini Andrea 1974 Uisp Abbadia S.Salvatore Asd 1 08 32 11,556 0.05.12
31 31 masch 11 C m Cerretani Francesco 1975 A.S.D. Pol. Chianciano 1 08 33 11,554 0.05.12
32 32 masch 14 B m Garaffi Alessandro 1982 S.S.D.S. Mens Sana In Corpore Sano 1 08 39 11,537 0.05.12
33 33 masch 15 B m Fabbrini Roberto 1986 Uisp Abbadia S.Salvatore Asd 1 08 45 11,520 0.05.13
34 34 masch 12 C m Grillo Manuele 1975 Olimpia 2004 1 08 49 11,509 0.05.13
35 35 masch 13 C m Pallini Roberto 1979 Podistica Il Campino 1 09 14 11,440 0.05.15
36 36 masch 4 A m Cesaroni Samuele 1990 A.S.D. Pol. Chianciano 1 09 17 11,431 0.05.15
37 1 femm 1 B f Di Benedetto Marika 1986 Asd Atletica Costa D'Argento 1 09 43 11,360 0.05.17
38 37 masch 16 B m Biagioni Marco 1988 A.S.D. Impero 1 09 46 11,352 0.05.17
39 38 masch 14 C m Cancelloni Marcello 1972 Atletica Avis Perugia 1 09 54 11,330 0.05.18
40 39 masch 15 C m Guaitini Michele 1973 Atletica Avis Perugia 1 10 07 11,295 0.05.19
41 40 masch 17 B m Adamini Marco 1983 A.S.D. Viterbo Runners 1 10 15 11,274 0.05.19
42 41 masch 18 B m Manzani Filippo 1985 Circolo Ricreativo Solvay 1 10 22 11,255 0.05.20
43 42 masch 5 D m Clementi Daniele 1969 Circolo Ricreativo Solvay 1 10 22 11,255 0.05.20
44 43 masch 16 C m Lazzerini Gianfranco 1974 A.S.D. Filippide Dlf Chiusi 1 10 25 11,247 0.05.20
45 44 masch 17 C m Falchetti Andrea 1978 Gas Runners Massa 1 10 29 11,237 0.05.20
46 45 masch 6 D m Sadotti Gilberto 1965 Amatori Podistica Arezzo 1 10 33 11,226 0.05.21
47 46 masch 7 D m Carlini Stefano 1966 A.S.D. Pol. Chianciano 1 10 50 11,181 0.05.22
48 47 masch 8 D m Leoncini Claudio 1966 G.S. Bancari Romani 1 11 06 11,139 0.05.23
49 48 masch 19 B m Merlini Paolo 1983 C.R. Banca Monte Dei Paschi Di Siena 1 11 56 11,010 0.05.27
50 49 masch 9 D m Benedetti Cristiano 1969 Asd Atletica Costa D'Argento 1 12 06 10,985 0.05.28
51 50 masch 5 A m Kone Ali 1997 Gruppo Pod. I Risorti Buonconvento A.S.D 1 12 13 10,967 0.05.28
52 51 masch 10 D m Demurtas Aldo 1969 Atl. Di Marco Sport 1 12 15 10,962 0.05.28
53 52 masch 6 A m Messina Saverio 1996 Montecatini Marathon A.S.D. 1 12 23 10,942 0.05.29
54 53 masch 18 C m Hobson Jonathan Charles 1976 Woodbridge Shufflers Rrc 1 12 25 10,937 0.05.29
55 2 femm 1 C f Piccini Manuela 1976 La Sbarra & I Grilli 1 12 31 10,922 0.05.30
56 54 masch 11 D m Mancuso Fulvio 1967 S.S.D.S. Mens Sana In Corpore Sano 1 12 33 10,917 0.05.30
57 55 masch 12 D m Di Sabato Giovanni 1969 Runcard 1 12 37 10,907 0.05.30
58 56 masch 7 A m Frankland Scott Aiden John 1994 Atl.Follonica 1 12 49 10,877 0.05.31
59 57 masch 19 C m Ferrigno Riccardo 1970 Il Ponte Scandicci A.S.D. Podistica 1 12 55 10,862 0.05.31
60 3 femm 2 C f Gabrielli Stefania 1974 La Sbarra & I Grilli 1 13 02 10,844 0.05.32
61 58 masch 20 C m Ammalati Giancarlo 1976 A.S.D. Impero 1 13 16 10,810 0.05.33
62 59 masch 21 C m Scalzo Antonio 1971 A.S.D.Le Ancelle 1 13 22 10,795 0.05.34
63 60 masch 20 B m Pratesi Marco 1985 Runcard 1 13 31 10,773 0.05.34
64 4 femm 1 D f Municchi Marcella 1968 Asd Atletica Costa D'Argento 1 13 55 10,715 0.05.36
65 61 masch 22 C m Lanzi Claudio 1973 Polisportiva Montalto 1 13 56 10,712 0.05.36
66 62 masch 23 C m Smera Sergio 1974 A.S.D. Liberi Podisti 1 13 56 10,712 0.05.36
67 63 masch 21 B m Sguazzino Giuseppe 1983 Atletica Montefiascone A.S.D. 1 13 56 10,712 0.05.36
68 64 masch 22 B m Renzi Luciano 1982 Polisportiva Montalto 1 14 08 10,683 0.05.37
69 65 masch 23 B m Turci Luigi 1982 Uisp Abbadia S.Salvatore Asd 1 14 12 10,674 0.05.37
70 66 masch 1 E m Bertolini Ademaro 1956 Grifo Runners Perugia Asd 1 14 29 10,633 0.05.39
71 67 masch 8 A m Demuru Daniele 1995 Uisp Abbadia S.Salvatore Asd 1 14 35 10,619 0.05.39
72 68 masch 13 D m Scoscia Federico 1967 A.S.D. At Running 1 14 37 10,614 0.05.39
73 69 masch 24 C m Platini Andrea 1976 Gruppo Pod. I Risorti Buonconvento A.S.D 1 14 39 10,610 0.05.39
74 70 masch 24 B m Mucciarini Simone 1980 A.S.D. G. Pod. R. Valenti 1 14 42 10,602 0.05.40
75 5 femm 1 A f Peruzzi Magdalena 1993 Pol. Policiano 1 14 51 10,581 0.05.40
76 71 masch 14 D m Renzini Roberto 1968 Gs Le Panche Castelquarto A.S.D 1 14 59 10,562 0.05.41
77 72 masch 15 D m Quattrucci Marco 1963 Asd Filippide-Avis C.Lago-Dlf 1 15 18 10,518 0.05.42
78 6 femm 3 C f Marchetti Daniela 1978 C.R. Banca Monte Dei Paschi Di Siena 1 15 28 10,495 0.05.43
79 73 masch 25 C m Nardi Jacopo 1976 Gruppo Sportivo Lucignano Val D'Arbia 1 15 52 10,439 0.05.45
80 74 masch 16 D m Bini Marco 1968 A.S.D. Olympic Runners Lama 1 16 07 10,405 0.05.46
81 75 masch 17 D m Ponzuoli Sergio 1965 Uisp Abbadia S.Salvatore Asd 1 16 16 10,385 0.05.47
82 76 masch 26 C m Attempati Andrea 1970 A.S.D. La Chianina 1 17 01 10,283 0.05.50
83 77 masch 27 C m Ischi Paolo 1971 A.S.D. La Chianina 1 17 02 10,281 0.05.50
84 78 masch 18 D m Bussagli Andrea 1965 A.S.D. G.S. Bellavista 1 17 03 10,279 0.05.50
85 79 masch 28 C m Cannoni Mirko 1970 Asd Filippide-Avis C.Lago-Dlf 1 17 04 10,277 0.05.50
86 80 masch 29 C m Fabbrini Paolo 1977 A.S.D. Sienarunners 1 17 07 10,270 0.05.51
87 81 masch 19 D m De Iulis Stefano 1967 G.S. Bancari Romani 1 17 08 10,268 0.05.51
88 82 masch 20 D m Daniele Pierantonio 1967 S.S.D.S. Mens Sana In Corpore Sano 1 17 10 10,263 0.05.51
89 83 masch 2 E m Scatoloni Vincenzo 1959 Atl. Casone Noceto Parma 1 17 12 10,259 0.05.51
90 84 masch 9 A m Rossi Valerio 1990 Atl. Colosseo 2000 1 17 19 10,244 0.05.51
91 85 masch 21 D m Quattrini Marco 1963 A.S.D. Team Marathon Bike 1 17 20 10,241 0.05.52
92 86 masch 22 D m Bianchini Alfredo 1966 Ass.Atl.Libertas Orvieto 1 17 23 10,235 0.05.52
93 87 masch 23 D m Peccianti Luca 1965 A.S.D. G.S. Monteaperti 1 17 25 10,230 0.05.52
94 88 masch 30 C m Dragoni Bruno 1971 A.S.D. Team Marathon Bike 1 17 29 10,222 0.05.52
95 89 masch 31 C m Valentini Enzo 1976 Polisportiva Montalto 1 17 39 10,200 0.05.53
96 90 masch 24 D m Localzo Marco 1966 G.S. Bancari Romani 1 17 50 10,176 0.05.54
97 91 masch 32 C m Ferri Mirco 1972 Pol. Arci Uisp Venturina 1 17 57 10,160 0.05.54
98 92 masch 25 B m Radicchi Manuel 1989 A.S.D. Pol. Chianciano 1 17 59 10,156 0.05.55
99 7 femm 4 C f Coppi Stefania 1978 Uisp Abbadia S.Salvatore Asd 1 18 00 10,154 0.05.55
100 8 femm 5 C f Scarselli Francesca 1973 A.S.D. Olympic Runners Lama 1 18 16 10,119 0.05.56
101 93 masch 3 E m Barbetti Alessandro 1954 A.S.D. Atletica Sinalunga 1 18 18 10,115 0.05.56
102 94 masch 26 B m Ragni Michele 1984 Runcard 1 18 20 10,111 0.05.56
103 95 masch 33 C m Galanelli Stefano 1971 Ass.Atl.Libertas Orvieto 1 18 20 10,111 0.05.56
104 96 masch 25 D m Feri Alessandro 1967 Circolo Ricreativo Solvay 1 18 39 10,070 0.05.58
105 97 masch 10 A m Valli Andrea 1992 A.S.D. G. Pod. R. Valenti 1 19 05 10,015 0.06.00
106 9 femm 6 C f Di Luca Gioconda 1972 Asdatl. Isaura Valle Dellirno 1 19 11 10,002 0.06.00
107 98 masch 34 C m Bigazzi Antonio 1970 Asd Podistica Empolese 1986 1 19 15 9,994 0.06.00
108 99 masch 26 D m Mariotti Massimo 1965 A.S.D. Team Marathon Bike 1 19 17 9,989 0.06.00
109 100 masch 27 D m Duchini Roberto 1965 A.S.D. La Chianina 1 19 29 9,964 0.06.01
110 101 masch 35 C m Giannini Emanuele 1977 A.S.D. Atletica Sinalunga 1 19 33 9,956 0.06.02
111 102 masch 27 B m Moraschini Luca 1986 S.S.D.S. Mens Sana In Corpore Sano 1 19 36 9,950 0.06.02
112 103 masch 36 C m Conti Marco 1970 A.S.D. La Chianina 1 19 41 9,939 0.06.02
113 10 femm 7 C f Gamberi Cristina 1975 A.S.D. Team Marathon Bike 1 19 47 9,927 0.06.03
114 11 femm 2 B f Barberini Michela 1984 Atletica Avis Perugia 1 19 49 9,923 0.06.03
115 104 masch 28 B m Beligni Andrea 1980 A.S.D. La Chianina 1 19 49 9,923 0.06.03
116 105 masch 37 C m Pelagracci Filippo 1974 Atletica Avis Magione 1 20 11 9,877 0.06.05
117 106 masch 4 E m D'Aiuto Carlo 1958 A.S.D. Nuova Atletica Lastra 1 20 26 9,847 0.06.06
118 107 masch 33 E m Fossi Renzo 1949 G.S.D. Libertas La Torre 1 20 35 9,828 0.06.06
119 108 masch 28 D m Barberini Pietro 1960 Ass. Sport. Dil. Cappuccini 1972 1 20 41 9,816 0.06.07
120 109 masch 38 C m Casali Alessandro 1973 Uisp Abbadia S.Salvatore Asd 1 20 53 9,792 0.06.08
121 110 masch 39 C m Cipolloni Luca 1970 Polisportiva Montalto 1 21 13 9,752 0.06.09
122 111 masch 11 A m De Angelis Giacomo 1990 A.S.D. La Chianina 1 21 14 9,750 0.06.09
123 112 masch 29 D m Parrini Pierluigi 1966 Ciclo Club Quota Mille 1 21 23 9,732 0.06.10
124 113 masch 40 C m D'Elia Vincenzo 1975 Trail Running Project Asd 1 21 24 9,730 0.06.10
125 114 masch 30 D m Martorana Alessandro 1960 A.S.D. Sienarunners 1 21 25 9,728 0.06.10
126 115 masch 5 E m Renzi Pietro 1956 Polisportiva Montalto 1 21 29 9,720 0.06.10
127 116 masch 6 E m Giuliani Andrea 1958 A.S.D. G.S. Monteaperti 1 21 41 9,696 0.06.11
128 117 masch 29 B m Biondi Michelangelo 1987 A.S.D. Team Marathon Bike 1 21 48 9,682 0.06.12
129 118 masch 31 D m Monnanni Enrico 1965 Pol. Policiano 1 21 56 9,666 0.06.12
130 119 masch 32 D m Jorio Valerio 1965 G.S. Bancari Romani 1 22 04 9,651 0.06.13
131 120 masch 33 D m Corsini Alessandro 1960 A.S.D. Olympic Runners Lama 1 22 04 9,651 0.06.13
132 121 masch 41 C m Carletti Valerio 1972 Asd Bolsena Forum Sport 1 22 10 9,639 0.06.14
133 122 masch 34 D m Mencacci Gianni 1967 A.S.D. Atletica Sinalunga 1 22 17 9,625 0.06.14
134 123 masch 42 C m Palmas Andrea 1972 A.S.D. G.S. Bellavista 1 22 23 9,614 0.06.15
135 124 masch 43 C m Vagaggini Diego 1970 Uisp Abbadia S.Salvatore Asd 1 22 24 9,612 0.06.15
136 125 masch 44 C m Rosini Dario 1970 A.S.D. Team Marathon Bike 1 22 35 9,590 0.06.15
137 12 femm 8 C f Ricci Veronica 1971 A.S.D. Sienarunners 1 22 48 9,565 0.06.16
138 13 femm 9 C f Chiavaccini Marcella 1979 Sempre Di Corsa Team Testi 1 22 53 9,556 0.06.17
139 126 masch 7 E m Ciampolini Fabrizio 1958 A.S.D.Le Ancelle 1 23 09 9,525 0.06.18
140 127 masch 45 C m Scovaventi Matteo 1978 Asd 4 Stormo 1 23 20 9,504 0.06.19
141 128 masch 8 E m Bongiovanni Salvatore 1959 C.R. Banca Monte Dei Paschi Di Siena 1 23 22 9,500 0.06.19
142 129 masch 46 C m Montelatici Fabrizio 1970 Maiano G.S. 1 23 22 9,500 0.06.19
143 130 masch 35 D m Ferrarese Andrea 1964 A.S.D. Team Marathon Bike 1 23 29 9,487 0.06.20
144 131 masch 36 D m Anselmi Achille 1969 A.S.D. At Running 1 23 31 9,483 0.06.20
145 132 masch 37 D m Capolingua Giuseppe 1967 S.S.D.S. Mens Sana In Corpore Sano 1 23 34 9,477 0.06.20
146 133 masch 47 C m Bocchi Davide 1976 A.S.D. Skeep 1 23 48 9,451 0.06.21
147 134 masch 9 E m Casula Luigi 1952 A.S.D. G.S. Bellavista 1 23 53 9,442 0.06.21
148 14 femm 10 C f Vanni Monica 1978 Runcard 1 24 02 9,425 0.06.22
149 135 masch 38 D m Silvestrini Antonio 1968 Uisp Abbadia S.Salvatore Asd 1 24 03 9,423 0.06.22
150 136 masch 48 C m Floriani Francesco 1970 A.S.D. S.P. Torre Del Mangia 1 24 03 9,423 0.06.22
151 15 femm 11 C f Piastra Lorena 1977 Tx Fitness S.S.D. Arl 1 24 06 9,417 0.06.22
152 137 masch 49 C m Innocenti Leonardo 1976 Atletica Signa A.S.D. 1 24 11 9,408 0.06.23
153 16 femm 3 B f Cesaretti Erika 1988 A.S.D. Pol. Chianciano 1 24 14 9,402 0.06.23
154 138 masch 50 C m Barbagli Sandro 1974 Atl.Sangiovannese 1967 1 24 15 9,401 0.06.23
155 139 masch 39 D m Chiezzi Alessandro 1966 A.S.D. Pol. Chianciano 1 24 18 9,395 0.06.23
156 140 masch 10 E m Spinelli Carlo 1958 A.S.D. G.S. Bellavista 1 24 19 9,393 0.06.23
157 141 masch 40 D m Romani Samuele 1963 Uisp Abbadia S.Salvatore Asd 1 24 26 9,380 0.06.24
158 17 femm 12 C f Perugini Federica 1979 Filirun Team Asd 1 24 33 9,367 0.06.24
159 142 masch 41 D m Clarichetti Mauro 1963 A.S.D. S.P. Torre Del Mangia 1 24 39 9,356 0.06.25
160 143 masch 42 D m Galasso Paolo 1961 G.S. Bancari Romani 1 24 40 9,354 0.06.25
161 144 masch 51 C m Forte Marco 1972 S.S.D.S. Mens Sana In Corpore Sano 1 25 03 9,312 0.06.27
162 145 masch 30 B m Guidi Federico 1984 C.S. Olimpia Poggio Al Vento A.S.D. 1 25 07 9,305 0.06.27
163 146 masch 52 C m Brunotti Gino 1971 Polisportiva Montalto 1 25 09 9,301 0.06.27
164 18 femm 2 D f Scopelliti Tania 1968 G.S. Polizia Di Stato Di Siena A.S.D. 1 25 11 9,298 0.06.27
165 147 masch 43 D m Lorenzetti Alessandro 1969 A.S.D. Atletica Sinalunga 1 25 21 9,279 0.06.28
166 148 masch 11 E m Civilini Elvio 1955 Asd Atletica Costa D'Argento 1 25 31 9,261 0.06.29
167 19 femm 4 B f Betto Francesca 1980 Riders Team Cecina 1 25 34 9,256 0.06.29
168 149 masch 44 D m Tanzini Silvano 1967 C.R. Banca Monte Dei Paschi Di Siena 1 25 48 9,231 0.06.30
169 150 masch 45 D m Gravanago Gian Luigi 1968 Asd Atletica Santa Marinella 1 25 53 9,222 0.06.30
170 151 masch 46 D m Montemaggi Gabriele 1966 A.S.D. Team Marathon Bike 1 26 13 9,186 0.06.32
171 152 masch 47 D m Cantagalli Guido 1963 A.S.D. S.P. Torre Del Mangia 1 26 27 9,161 0.06.33
172 20 femm 3 D f Braganti Maria 1965 A.S.D. Olympic Runners Lama 1 26 32 9,153 0.06.33
173 153 masch 48 D m Giannini Paolo 1966 A.S.D. Team Marathon Bike 1 27 02 9,100 0.06.36
174 154 masch 49 D m Marchini Paolo 1962 A.S.D. S.P. Torre Del Mangia 1 27 18 9,072 0.06.37
175 21 femm 5 B f Cocchi Anna Lena 1981 Atl.Follonica 1 27 19 9,070 0.06.37
176 155 masch 53 C m Pallecchi Gianni 1974 A.S.D. S.P. Torre Del Mangia 1 27 22 9,065 0.06.37
177 156 masch 54 C m Mattucilli Alessandro 1974 Polisportiva Montalto 1 27 31 9,050 0.06.38
178 157 masch 50 D m Guarente Gennaro 1965 A.S.D. Team Marathon Bike 1 27 40 9,034 0.06.39
179 158 masch 55 C m Cacciani Andrea 1972 G.S. Bancari Romani 1 27 47 9,022 0.06.39
180 159 masch 51 D m Barrasso Antonio 1961 A.S.D. Gruppo Sportivo Reale Stato Dei Presidi 1 27 55 9,009 0.06.40
181 160 masch 31 B m Marianello Gabriele 1984 Atletica Montefiascone A.S.D. 1 27 57 9,005 0.06.40
182 22 femm 4 D f Ducci Sabrina 1965 Isolotto A.P.D. 1 28 12 8,980 0.06.41
183 161 masch 52 D m Van Schoor Bob 1968 M.M.C. Belgio 1 28 13 8,978 0.06.41
184 162 masch 12 A m Avitabile Luca 1996 Italiana Running A.S.D. 1 28 34 8,942 0.06.43
185 163 masch 53 D m Barlocco Guido 1963 G.S. Dilettantistico Run...Dagi 1 28 39 8,934 0.06.43
186 164 masch 32 B m Betti Giovanni 1989 A.S.D. G. Pod. R. Valenti 1 28 47 8,921 0.06.44
187 165 masch 12 E m Settimelli Andrea 1959 A.S.D. Bolsena Forum-Sport 1 28 57 8,904 0.06.44
188 166 masch 54 D m Caldesi Fulvio 1965 A.S.D. La Chianina 1 29 00 8,899 0.06.45
189 167 masch 55 D m Fini Riccardo 1969 A.S.D. Team Marathon Bike 1 29 06 8,889 0.06.45
190 23 femm 5 D f Monestiroli Angelica 1963 A.S.D. Team Marathon Bike 1 29 18 8,869 0.06.46
191 168 masch 56 C m Saveri Raffaele 1975 Asd Bolsena Forum Sport 1 29 39 8,834 0.06.48
192 169 masch 56 D m Sbarrini Marco 1969 Asd Bolsena Forum Sport 1 29 40 8,833 0.06.48
193 170 masch 57 D m Gianfranco Mariani 1964 Atletica Avis Perugia 1 29 41 8,831 0.06.48
194 171 masch 13 E m Sassaroli Ubaldo 1956 Runcard 1 29 45 8,825 0.06.48
195 172 masch 58 D m Taliani Massimo 1960 A.S.D. Team Marathon Bike 1 29 49 8,818 0.06.48
196 24 femm 13 C f Rausse Daniela 1976 Maiano G.S. 1 29 52 8,813 0.06.49
197 173 masch 13 A m Michelangeli Mattia 1994 A.S.D. S.P. Torre Del Mangia 1 29 52 8,813 0.06.49
198 174 masch 57 C m Conti Lorenzo 1973 Ass. Sport. Dil. Cappuccini 1972 1 30 12 8,780 0.06.50
199 175 masch 58 C m Milani Manuel 1970 U. P.Policiano Arezzo Atletica 1 30 14 8,777 0.06.50
200 25 femm 14 C f Durval Annamaria 1973 Attraverso Running Asd 1 30 36 8,742 0.06.52
201 176 masch 59 D m Lanzi Massimo 1969 Polisportiva Montalto 1 30 48 8,722 0.06.53
202 177 masch 14 A m Faustini Alfredo 1990 A.D. Pol. La Bulletta 1 30 57 8,708 0.06.53
203 178 masch 59 C m Chiarion Francesco 1978 Gruppo Sportivo Lucignano Val D'Arbia 1 31 10 8,687 0.06.54
204 26 femm 6 D f Brega Daniela Maria 1964 A.S.D. Aurora Arci Ravacciano 1948 1 31 20 8,672 0.06.55
205 179 masch 60 C m Anselmi Simone 1970 A.S.D. S.P. Torre Del Mangia 1 31 32 8,653 0.06.56
206 180 masch 60 D m De Biasio Nicola 1964 A.S.D. La Chianina 1 31 34 8,649 0.06.56
207 181 masch 61 C m Formigli Andrea 1972 Runcard 1 31 40 8,640 0.06.57
208 182 masch 61 D m Ammalati Alessandro 1962 A.S.D. Atletica Follonica 1 31 57 8,613 0.06.58
209 183 masch 62 C m Callegari Giovanni 1976 Runcard 1 32 27 8,567 0.07.00
210 184 masch 63 C m Rondini Simone 1971 Ass. Sport. Dil. Cappuccini 1972 1 32 32 8,559 0.07.01
211 185 masch 64 C m Cavarra Marco 1970 G.S. Bancari Romani 1 32 36 8,553 0.07.01
212 186 masch 62 D m Bogni Mirko 1969 A.S.D. Pol. Chianciano 1 32 48 8,534 0.07.02
213 187 masch 65 C m Rosati Michele 1974 A.S.D. S.P. Torre Del Mangia 1 32 58 8,519 0.07.03
214 188 masch 66 C m Brizio Oriano 1977 Orvieto Runners A.S.D. 1 33 19 8,487 0.07.04
215 189 masch 33 B m Tarmati Lucio 1983 Orvieto Runners A.S.D. 1 33 20 8,486 0.07.04
216 190 masch 63 D m Tanganelli Filippo 1966 Gruppo Sportivo Lucignano Val D'Arbia 1 33 42 8,453 0.07.06
217 27 femm 15 C f Trentini Emmanuelle 1978 Asd Filippide-Avis C.Lago-Dlf 1 34 00 8,426 0.07.07
218 28 femm 16 C f Chelini Cheti 1975 Societa' Atletica Castiglionese 1 34 06 8,417 0.07.08
219 191 masch 64 D m Morgiani Riccardo 1967 A.S.D. Team Marathon Bike 1 34 19 8,397 0.07.09
220 192 masch 67 C m Ceppitelli Agostino 1973 Runners Canino Asd 1 34 29 8,382 0.07.10
221 29 femm 17 C f Corsi Ilaria 1971 A.S.D. S.P. Torre Del Mangia 1 34 34 8,375 0.07.10
222 30 femm 18 C f Gorelli Simona 1970 A.S.D. Il Gregge Ribelle 1 34 45 8,359 0.07.11
223 193 masch 65 D m Grassi Roberto 1969 A.S.D. Nuova Atletica Lastra 1 34 46 8,357 0.07.11
224 31 femm 19 C f Poggesi Farida 1970 Gruppo Podisti Resco 1909 A.S.D. 1 35 02 8,334 0.07.12
225 194 masch 68 C m Calvanelli Marco 1974 Ass.Atl.Libertas Orvieto 1 35 20 8,308 0.07.13
226 195 masch 34 B m Sprugnoli Simone 1988 A.S.D. G.S. Bellavista 1 35 31 8,292 0.07.14
227 196 masch 66 D m Di Martino Luca 1962 G.S. Cat Sport Roma 1 35 34 8,287 0.07.14
228 32 femm 7 D f Calzoni Simona 1967 A.S.D. Il Gregge Ribelle 1 35 43 8,274 0.07.15
229 33 femm 6 B f Checcaglini Giada 1987 U. P.Policiano Arezzo Atletica 1 35 44 8,273 0.07.15
230 197 masch 69 C m Panconi Andrea 1971 A.S.D. Team Marathon Bike 1 35 52 8,261 0.07.16
231 198 masch 67 D m Bigi Adriano 1962 Atl.Sangiovannese 1967 1 36 16 8,227 0.07.18
232 199 masch 68 D m Valci Stefano 1962 Atl.Sangiovannese 1967 1 36 17 8,226 0.07.18
233 200 masch 14 E m Frullanti Enzo 1953 A.S.D. G. Pod. R. Valenti 1 36 33 8,203 0.07.19
234 201 masch 1 F m Fani Azelio 1942 Dopo Lavoro Ferroviario Grosseto 1 36 38 8,196 0.07.19
235 202 masch 69 D m Graziani Cristiano 1965 Ass.Atl.Libertas Orvieto 1 36 48 8,182 0.07.20
236 203 masch 70 D m Pepi Luciano 1963 A.S.D. S.P. Torre Del Mangia 1 36 52 8,176 0.07.20
237 204 masch 70 C m Camboni Massimiliano 1970 G.S. Bancari Romani 1 36 57 8,169 0.07.21
238 205 masch 71 C m Marcelli Mirko 1975 Avis Foiano 1 37 01 8,164 0.07.21
239 34 femm 20 C f Kruszynska Bozena Anna 1978 Atletica Montefiascone A.S.D. 1 37 06 8,157 0.07.21
240 206 masch 72 C m Biagioli Marco 1972 Asd Runners For Emergency 1 37 09 8,152 0.07.22
241 207 masch 73 C m Benucci Alessandro 1970 Isolotto A.P.D. 1 37 12 8,148 0.07.22
242 208 masch 74 C m Nofroni Massimiliano 1971 A.S.D. La Chianina 1 37 27 8,127 0.07.23
243 209 masch 15 E m Formisano Giovanni 1959 Dopo Lavoro Ferroviario Grosseto 1 37 33 8,119 0.07.23
244 210 masch 16 E m Pinzi Fabrizio 1953 Monteriggioni Sport Cultura A.S.D. 1 37 46 8,101 0.07.24
245 211 masch 75 C m Costarelli Leonardo 1977 Podistica Avis Deruta 1 37 50 8,095 0.07.25
246 212 masch 2 F m Goracci Mario 1944 A.S.D. G. Pod. R. Valenti 1 37 57 8,086 0.07.25
247 213 masch 76 C m Fastellini Paolo 1978 Stile Libero - Societa' Cooperativa Sociale Onlus E Sportiva 1 38 19 8,056 0.07.27
248 35 femm 21 C f Calubani Giulia 1979 Il Ponte Scandicci A.S.D. Podistica 1 38 20 8,054 0.07.27
249 214 masch 71 D m Nissum Mikkel 1968 Ass. Sport. Dil. Cappuccini 1972 1 38 23 8,050 0.07.27
250 215 masch 17 E m Guerrieri Massimo 1957 A.S.D. Filippide Dlf Chiusi 1 38 41 8,026 0.07.29
251 216 masch 72 D m Pellegrini Gianni 1969 G.S.Filippide 1 38 59 8,001 0.07.30
252 36 femm 8 D f Sicuranza Silvia 1960 Isolotto A.P.D. 1 39 04 7,995 0.07.30
253 217 masch 3 F m Lodovichi Franco 1948 A.S.D. Pol. Chianciano 1 39 29 7,961 0.07.32
254 218 masch 77 C m Maura Luca 1977 A.S.D. Team Marathon Bike 1 39 44 7,941 0.07.33
255 219 masch 18 E m Facchielli Massimo 1957 A.S.D. Team Marathon Bike 1 40 08 7,909 0.07.35
256 220 masch 19 E m Vaiana Mario 1958 Isolotto A.P.D. 1 40 14 7,902 0.07.36
257 221 masch 78 C m Bellumori Claudio 1979 A.S.D. Team Marathon Bike 1 41 05 7,835 0.07.40
258 222 masch 79 C m Giannetti Claudio 1971 Gruppo Pod. I Risorti Buonconvento A.S.D 1 41 27 7,807 0.07.41
259 37 femm 22 C f Colombo Barbara 1971 Asd 4 Stormo 1 42 01 7,763 0.07.44
260 223 masch 73 D m Esposito Cristiano 1964 A.S.D. Atletica Sinalunga 1 42 04 7,760 0.07.44
261 224 masch 20 E m Calandra Vincenzo 1957 G.S. Polizia Di Stato Di Siena A.S.D. 1 42 16 7,744 0.07.45
262 225 masch 80 C m Martini Marco 1973 A.S.D. Sienarunners 1 42 44 7,709 0.07.47
263 226 masch 21 E m Trivelli Riccardo 1958 Uisp Comitato Terr.Le Terre Etrusco-Labroniche 1 43 05 7,683 0.07.49
264 38 femm 23 C f Agostini Gaia 1974 A.S.D. Running Evolution 1 43 07 7,681 0.07.49
265 227 masch 22 E m Panella Claudio 1953 A.S.D. Running Evolution 1 43 08 7,679 0.07.49
266 228 masch 81 C m Paolino Giuseppe 1971 G.S. Bancari Romani 1 43 25 7,658 0.07.50
267 229 masch 74 D m Monnecchi Gianluca 1966 Societa' Trieste 1 43 35 7,646 0.07.51
268 230 masch 82 C m Corazzini Sandro 1970 Runcard 1 43 55 7,621 0.07.52
269 231 masch 83 C m Peccianti Marco 1978 S.S.D.S. Mens Sana In Corpore Sano 1 43 59 7,617 0.07.53
270 232 masch 75 D m Alesini Arnaldo 1962 Asd Bolsena Forum Sport 1 44 38 7,569 0.07.56
271 233 masch 76 D m Boriosi Claudio 1963 Atletica Signa A.S.D. 1 44 45 7,561 0.07.56
272 39 femm 1 E f Severo Neto Ione 1958 Asd Bolsena Forum Sport 1 45 44 7,491 0.08.01
273 234 masch 77 D m Moretti Massimo 1964 A.S.D. Team Marathon Bike 1 45 52 7,481 0.08.01
274 235 masch 84 C m Chiodini Andrea 1971 Grifo Runners Perugia Asd 1 45 55 7,478 0.08.01
275 236 masch 23 E m Cenni Marco 1952 C.R. Banca Monte Dei Paschi Di Siena 1 45 58 7,474 0.08.02
276 40 femm 9 D f Lorenzoni Renata 1968 Runcard 1 46 06 7,465 0.08.02
277 237 masch 4 F m Gettatelli Roberto 1947 Uisp Comitato Terr.Le Viterbo 1 46 09 7,461 0.08.03
278 238 masch 24 E m Natalicchi Cesare 1956 Podistica Avis Deruta 1 46 18 7,451 0.08.03
279 239 masch 85 C m Fasano Francesco 1973 Asd Amatori Libertas Siena 1 46 52 7,411 0.08.06
280 41 femm 7 B f Alfieri Veronica 1987 Runcard 1 47 08 7,393 0.08.07
281 240 masch 86 C m Cerino Simone 1973 Runcard 1 47 09 7,392 0.08.07
282 42 femm 10 D f Arcari Maria 1961 Atletica Signa A.S.D. 1 47 21 7,378 0.08.08
283 43 femm 11 D f Arcari Angela 1967 Atletica Signa A.S.D. 1 47 22 7,377 0.08.08
284 241 masch 5 F m Bernini Mauro 1949 Uisp Comitato Terr.Le Terre Etrusco-Labroniche 1 47 26 7,372 0.08.08
285 44 femm 12 D f Corrarello Maria Grazia 1967 Asd Sempre Di Corsa Team 1 47 41 7,355 0.08.10
286 242 masch 78 D m Martinelli Roberto 1966 A.S.D. La Chianina 1 47 58 7,336 0.08.11
287 243 masch 25 E m Burla Fernando 1950 Asd Bolsena Forum Sport 1 48 26 7,304 0.08.13
288 45 femm 13 D f Santi Patrizia 1965 A.S.D. La Chianina 1 49 12 7,253 0.08.16
289 244 masch 87 C m Passa Maurizio 1971 G.S. Bancari Romani 1 49 30 7,233 0.08.18
290 245 masch 26 E m Contemori Mauro 1958 A.S.D. Atletica Sinalunga 1 50 32 7,165 0.08.22
291 246 masch 79 D m Mililotti Riccardo 1968 A.S.D. Team Marathon Bike 1 51 08 7,127 0.08.25
292 46 femm 14 D f Ugolini Lucia 1965 A.S.D. S.P. Torre Del Mangia 1 52 24 7,046 0.08.31
293 47 femm 8 B f Bela' Sara 1982 G.S. Bancari Romani 1 52 26 7,044 0.08.31
294 247 masch 80 D m Crimi Carlo 1969 Uisp Comitato Terr.Le Grosseto 1 53 24 6,984 0.08.36
295 48 femm 2 E f Di Felice Annamaria 1957 Atl. Monte Mario 1 53 32 6,976 0.08.36
296 49 femm 24 C f Giovagnola Simona 1976 Avis Foiano 1 54 18 6,929 0.08.40
297 248 masch 15 A m Buydens Phil Roger 1993 M.M.C. Belgio 1 55 01 6,886 0.08.43
298 50 femm 2 A f Levy Muriel 1994 M.M.C. Belgio 1 55 01 6,886 0.08.43
299 51 femm 25 C f Vannini Valentina 1979 A.S.D. Pol. Chianciano 1 55 02 6,885 0.08.43
300 249 masch 27 E m Alessandri Salvatore 1958 C.R. Banca Monte Dei Paschi Di Siena 1 55 13 6,874 0.08.44
301 250 masch 6 F m Crezzini Arturo 1947 C.R. Banca Monte Dei Paschi Di Siena 1 55 13 6,874 0.08.44
302 52 femm 26 C f Bove Valentina 1973 A.S.D. Kali Kalasag E.S.E. 1 55 39 6,848 0.08.46
303 251 masch 28 E m Cencini Domenico 1959 Uisp Abbadia S.Salvatore Asd 1 55 51 6,836 0.08.47
304 252 masch 7 F m Guerrini Giacomo 1948 Uisp Abbadia S.Salvatore Asd 1 55 52 6,835 0.08.47
305 253 masch 81 D m Pagliai Roberto 1967 A.S.D. Filippide Dlf Chiusi 1 56 22 6,806 0.08.49
306 53 femm 27 C f Porcelli Giulia 1977 A.S.D. S.P. Torre Del Mangia 1 56 32 6,796 0.08.50
307 54 femm 15 D f Boldi Carla 1961 A.S.D. S.P. Torre Del Mangia 1 57 08 6,762 0.08.52
308 55 femm 9 B f Muresan Georgeta 1981 Asd Atletica Costa D'Argento 1 58 36 6,678 0.08.59
309 254 masch 88 C m Violante Sebastiano 1974 G.S. Bancari Romani 1 58 59 6,656 0.09.01
310 56 femm 3 E f Terzuoli Gianna 1957 A.S.D. Aurora Arci Ravacciano 1948 1 59 45 6,614 0.09.04
311 57 femm 16 D f Felici Domitilla 1966 Podistica Solidarieta' 1 59 51 6,608 0.09.05
312 58 femm 17 D f Giannasi Luana 1965 A.S.D. S.P. Torre Del Mangia 1 59 57 6,603 0.09.05
313 255 masch 8 F m Burgassi Cesare 1939 Maiano G.S. 2 01 43 6,507 0.09.13
314 256 masch 29 E m Scarpini Fabrizio 1950 C.R. Banca Monte Dei Paschi Di Siena 2 02 15 6,479 0.09.16
315 257 masch 82 D m Meacci Fausto 1961 A.S.D. Atletica Sinalunga 2 06 21 6,268 0.09.34
316 59 femm 3 A f Fe' Chiara 1993 A.S.D. La Chianina 2 07 15 6,224 0.09.38
317 258 masch 30 E m Maridati Corrado 1956 A.S.D. Aurora Arci Ravacciano 1948 2 14 07 5,905 0.10.10
318 259 masch 31 E m Chesi Rino 1952 C.R. Banca Monte Dei Paschi Di Siena 2 21 13 5,608 0.10.42
319 260 masch 9 F m Ciampalini Eros 1942 Runcard 2 25 20 5,450 0.11.01
320 60 femm 28 C f Caponetto Keti 1974 Gs Le Panche Castelquarto A.S.D 2 26 17 5,414 0.11.05
321 61 femm 18 D f Miniati Ambra 1965 G.S. Il Fiorino A.S.D. 2 26 50 5,394 0.11.07
322 261 masch 10 F m Miniati Walter 1936 G.S. Il Fiorino A.S.D. 2 26 51 5,393 0.11.08
323 262 masch 32 E m Casaioli Mario 1956 A.S.D. Aurora Arci Ravacciano 1948 2 29 03 5,314 0.11.18
www . g i u s e p p e r o s a t i . n e t
l a  m e m o r i a  d e l l e  t u e  c o r s e
e qualcosa di più…